Time;durP1;ratioP1;P1;durP2;ratioP2;P2;SDS_P1;SDS_P2;PMS_P1;PMS_P2;Temp;Humidity;BMP_temperature;BMP_pressure;BME280_temperature;BME280_humidity;BME280_pressure;Samples;Min_cycle;Max_cycle;Signal;HPM_P1;HPM_P2
2023/05/17 00:00:10;;;;;;;;;;;;;;;9.20;100.00;96335.78;5060905;28;19924;-78
2023/05/17 00:02:36;;;;;;;;;;;;;;;9.21;100.00;96345.53;5066774;28;19924;-78
2023/05/17 00:05:04;;;;;;;;;;;;;;;9.18;100.00;96346.00;5067289;28;19931;-78
2023/05/17 00:07:31;;;;;;;;;;;;;;;9.22;100.00;96345.31;5065579;28;19928;-78
2023/05/17 00:09:58;;;;;;;;;;;;;;;9.19;100.00;96353.00;5065127;28;19978;-79
2023/05/17 00:12:25;;;;;;;;;;;;;;;9.18;100.00;96349.50;5086194;28;19924;-79
2023/05/17 00:14:53;;;;;;;;;;;;;;;9.20;100.00;96354.66;5062400;28;19924;-78
2023/05/17 00:17:20;;;;;;;;;;;;;;;9.18;100.00;96349.50;5076547;28;19928;-78
2023/05/17 00:19:47;;;;;;;;;;;;;;;9.21;100.00;96356.31;5068734;28;20005;-78
2023/05/17 00:22:14;;;;;;;;;;;;;;;9.20;100.00;96349.25;5056213;28;19924;-78
2023/05/17 00:24:41;;;;;;;;;;;;;;;9.22;100.00;96352.56;5071912;28;19960;-78
2023/05/17 00:27:08;;;;;;;;;;;;;;;9.24;100.00;96366.66;5076186;28;19973;-79
2023/05/17 00:29:36;;;;;;;;;;;;;;;9.26;100.00;96362.69;5077096;28;19924;-79
2023/05/17 00:32:05;;;;;;;;;;;;;;;9.21;100.00;96361.69;5077806;28;19924;-78
2023/05/17 00:34:32;;;;;;;;;;;;;;;9.20;100.00;96366.25;5079684;28;19925;-78
2023/05/17 00:36:59;;;;;;;;;;;;;;;9.21;100.00;96350.91;5082268;28;20200;-78
2023/05/17 00:39:26;;;;;;;;;;;;;;;9.27;100.00;96366.22;5076837;28;19924;-78
2023/05/17 00:41:52;;;;;;;;;;;;;;;9.26;100.00;96361.88;5080302;28;20028;-78
2023/05/17 00:44:19;;;;;;;;;;;;;;;9.23;100.00;96360.44;5073002;28;19924;-79
2023/05/17 00:46:46;;;;;;;;;;;;;;;9.22;100.00;96364.16;5081582;28;19941;-79
2023/05/17 00:49:14;;;;;;;;;;;;;;;9.20;100.00;96366.25;5076451;28;19929;-78
2023/05/17 00:51:41;;;;;;;;;;;;;;;9.24;100.00;96366.66;5075019;28;19924;-79
2023/05/17 00:54:10;;;;;;;;;;;;;;;9.23;100.00;96360.44;5083861;28;19982;-79
2023/05/17 00:56:37;;;;;;;;;;;;;;;9.22;100.00;96368.72;5070219;28;19947;-78
2023/05/17 00:59:05;;;;;;;;;;;;;;;9.20;100.00;96368.13;5082496;28;19924;-79
2023/05/17 01:01:32;;;;;;;;;;;;;;;9.19;100.00;96364.59;5077025;28;19982;-77
2023/05/17 01:03:59;;;;;;;;;;;;;;;9.19;100.00;96359.22;5061575;22;19932;-82
2023/05/17 01:06:27;;;;;;;;;;;;;;;9.18;100.00;96362.16;5024237;28;19971;-81
2023/05/17 01:08:55;;;;;;;;;;;;;;;9.20;100.00;96365.44;5025353;28;19932;-81
2023/05/17 01:11:29;;;;;;;;;;;;;;;9.23;100.00;96356.91;5028331;28;19925;-81
2023/05/17 01:14:00;;;;;;;;;;;;;;;9.20;100.00;96363.56;5029240;28;19926;-81
2023/05/17 01:16:30;;;;;;;;;;;;;;;9.19;100.00;96363.78;5024523;28;19936;-81
2023/05/17 01:18:58;;;;;;;;;;;;;;;9.20;100.00;96362.72;5041257;28;19925;-81
2023/05/17 01:21:36;;;;;;;;;;;;;;;9.21;100.00;96362.53;5023158;28;19933;-81
2023/05/17 01:24:07;;;;;;;;;;;;;;;9.27;100.00;96367.00;5020378;28;19929;-82
2023/05/17 01:26:42;;;;;;;;;;;;;;;9.25;100.00;96362.91;5028536;28;19933;-81
2023/05/17 01:29:09;;;;;;;;;;;;;;;9.27;100.00;96353.53;5016807;28;19925;-81
2023/05/17 01:31:38;;;;;;;;;;;;;;;9.23;100.00;96367.69;5014245;28;20641;-82
2023/05/17 01:34:07;;;;;;;;;;;;;;;9.25;100.00;96369.13;5014299;28;19976;-81
2023/05/17 01:36:34;;;;;;;;;;;;;;;9.24;100.00;96372.03;5034649;28;19932;-81
2023/05/17 01:39:02;;;;;;;;;;;;;;;9.25;100.00;96369.13;5038050;28;19925;-81
2023/05/17 01:41:30;;;;;;;;;;;;;;;9.17;100.00;96368.59;5025530;28;19925;-82
2023/05/17 01:44:03;;;;;;;;;;;;;;;9.11;100.00;96379.19;5022799;28;19927;-81
2023/05/17 01:46:33;;;;;;;;;;;;;;;9.05;100.00;96384.63;5016700;28;19933;-81
2023/05/17 01:49:05;;;;;;;;;;;;;;;9.00;100.00;96376.41;5031813;28;19932;-80
2023/05/17 01:51:33;;;;;;;;;;;;;;;8.96;100.00;96380.56;5017501;28;19932;-81
2023/05/17 01:54:02;;;;;;;;;;;;;;;8.93;100.00;96375.63;5015915;28;19933;-81
2023/05/17 01:56:33;;;;;;;;;;;;;;;8.93;100.00;96375.63;5026366;28;19960;-82
2023/05/17 01:59:03;;;;;;;;;;;;;;;8.90;100.00;96382.25;5020993;28;19932;-81
2023/05/17 02:01:30;;;;;;;;;;;;;;;8.90;100.00;96378.75;5037177;28;19925;-81
2023/05/17 02:03:57;;;;;;;;;;;;;;;8.90;100.00;96387.66;5018773;28;19948;-80
2023/05/17 02:06:24;;;;;;;;;;;;;;;8.87;100.00;96376.47;5031320;28;19925;-81
2023/05/17 02:08:52;;;;;;;;;;;;;;;8.85;100.00;96384.78;5023799;28;19925;-81
2023/05/17 02:11:19;;;;;;;;;;;;;;;8.87;100.00;96381.88;5035169;28;19974;-81
2023/05/17 02:13:45;;;;;;;;;;;;;;;8.89;100.00;96375.22;5028553;28;20015;-82
2023/05/17 02:16:14;;;;;;;;;;;;;;;8.89;100.00;96386.00;5040533;28;19928;-81
2023/05/17 02:18:40;;;;;;;;;;;;;;;8.88;100.00;96383.53;5021709;28;19926;-82
2023/05/17 02:21:07;;;;;;;;;;;;;;;8.84;100.00;96376.94;5028432;28;19925;-82
2023/05/17 02:23:36;;;;;;;;;;;;;;;8.80;100.00;96373.84;5023714;28;19967;-81
2023/05/17 02:26:03;;;;;;;;;;;;;;;8.78;100.00;96375.91;5026307;28;19929;-81
2023/05/17 02:28:30;;;;;;;;;;;;;;;8.78;100.00;96373.22;5024667;28;19926;-81
2023/05/17 02:30:56;;;;;;;;;;;;;;;8.85;100.00;96374.00;5041188;28;20093;-81
2023/05/17 02:33:26;;;;;;;;;;;;;;;8.83;100.00;96381.50;5019005;28;19936;-81
2023/05/17 02:35:53;;;;;;;;;;;;;;;8.87;100.00;96379.16;5032086;28;20086;-82
2023/05/17 02:38:19;;;;;;;;;;;;;;;8.79;100.00;96380.28;5030372;28;19925;-81
2023/05/17 02:40:46;;;;;;;;;;;;;;;8.78;100.00;96380.47;5028969;28;19929;-82
2023/05/17 02:43:13;;;;;;;;;;;;;;;8.77;100.00;96381.53;5038508;28;19929;-81
2023/05/17 02:45:39;;;;;;;;;;;;;;;8.73;100.00;96381.97;5029126;28;19925;-82
2023/05/17 02:48:06;;;;;;;;;;;;;;;8.68;100.00;96379.09;5038041;28;19925;-82
2023/05/17 02:50:35;;;;;;;;;;;;;;;8.73;100.00;96375.75;5027915;28;20025;-80
2023/05/17 02:53:02;;;;;;;;;;;;;;;8.70;100.00;96381.56;5037033;28;19932;-82
2023/05/17 02:55:29;;;;;;;;;;;;;;;8.70;100.00;96376.19;5026984;28;19932;-82
2023/05/17 02:57:55;;;;;;;;;;;;;;;8.72;100.00;96379.50;5023905;28;19969;-83
2023/05/17 03:00:23;;;;;;;;;;;;;;;8.75;100.00;96380.94;5028538;28;20064;-81
2023/05/17 03:02:50;;;;;;;;;;;;;;;8.73;100.00;96384.66;5043349;28;19925;-82
2023/05/17 03:05:17;;;;;;;;;;;;;;;8.75;100.00;96384.44;5027742;28;19933;-81
2023/05/17 03:07:49;;;;;;;;;;;;;;;8.73;100.00;96381.97;5031687;28;19932;-82
2023/05/17 03:10:16;;;;;;;;;;;;;;;8.75;100.00;96386.31;5032004;28;19955;-82
2023/05/17 03:12:45;;;;;;;;;;;;;;;8.75;100.00;96383.63;5029441;28;20020;-82
2023/05/17 03:15:13;;;;;;;;;;;;;;;8.78;100.00;96383.16;5046979;28;19925;-82
2023/05/17 03:17:39;;;;;;;;;;;;;;;8.74;100.00;96390.88;5031894;28;19925;-81
2023/05/17 03:20:07;;;;;;;;;;;;;;;8.74;100.00;96393.56;5044689;28;19968;-83
2023/05/17 03:22:35;;;;;;;;;;;;;;;8.75;100.00;96397.09;5033829;28;19956;-81
2023/05/17 03:25:04;;;;;;;;;;;;;;;8.72;100.00;96407.25;5041382;28;20052;-81
2023/05/17 03:27:32;;;;;;;;;;;;;;;8.71;100.00;96396.69;5051330;28;19932;-81
2023/05/17 03:30:00;;;;;;;;;;;;;;;8.67;100.00;96395.50;5034435;28;19925;-81
2023/05/17 03:32:28;;;;;;;;;;;;;;;8.64;100.00;96388.66;5035129;28;19933;-81
2023/05/17 03:34:56;;;;;;;;;;;;;;;8.62;100.00;96389.91;5024642;28;19925;-82
2023/05/17 03:37:24;;;;;;;;;;;;;;;8.60;100.00;96391.97;5027664;28;19925;-81
2023/05/17 03:39:50;;;;;;;;;;;;;;;8.62;100.00;96389.91;5029451;28;19932;-82
2023/05/17 03:42:18;;;;;;;;;;;;;;;8.63;100.00;96396.94;5025265;28;19925;-81
2023/05/17 03:44:45;;;;;;;;;;;;;;;8.62;100.00;96400.69;5046601;28;19925;-81
2023/05/17 03:47:13;;;;;;;;;;;;;;;8.60;100.00;96405.44;5042256;28;19936;-81
2023/05/17 03:49:40;;;;;;;;;;;;;;;8.58;100.00;96402.16;5026795;28;20019;-81
2023/05/17 03:52:07;;;;;;;;;;;;;;;8.54;100.00;96398.25;5027808;28;19925;-82
2023/05/17 03:54:34;;;;;;;;;;;;;;;8.52;100.00;96403.84;5021266;28;19925;-81
2023/05/17 03:57:02;;;;;;;;;;;;;;;8.50;100.00;96402.41;5024966;28;19925;-81
2023/05/17 03:59:31;;;;;;;;;;;;;;;8.52;100.00;96408.38;5026565;28;19925;-82
2023/05/17 04:01:58;;;;;;;;;;;;;;;8.54;100.00;96409.00;5024749;28;19927;-82
2023/05/17 04:04:25;;;;;;;;;;;;;;;8.53;100.00;96407.34;5024551;28;19933;-81
2023/05/17 04:06:52;;;;;;;;;;;;;;;8.51;100.00;96404.88;5028647;28;19925;-82
2023/05/17 04:09:19;;;;;;;;;;;;;;;8.53;100.00;96407.34;5044171;28;19989;-82
2023/05/17 04:11:45;;;;;;;;;;;;;;;8.56;100.00;96412.31;5028262;28;19925;-82
2023/05/17 04:14:13;;;;;;;;;;;;;;;8.53;100.00;96421.63;5034937;28;19925;-81
2023/05/17 04:16:41;;;;;;;;;;;;;;;8.52;100.00;96421.84;5037819;28;19932;-81
2023/05/17 04:19:09;;;;;;;;;;;;;;;8.53;100.00;96412.72;5027966;28;19925;-81
2023/05/17 04:21:36;;;;;;;;;;;;;;;8.57;100.00;96414.78;5023358;28;19939;-81
2023/05/17 04:24:03;;;;;;;;;;;;;;;8.59;100.00;96412.69;5025418;28;19933;-81
2023/05/17 04:26:30;;;;;;;;;;;;;;;8.70;100.00;96409.31;5025483;28;19926;-82
2023/05/17 04:28:58;;;;;;;;;;;;;;;8.70;100.00;96420.09;5045538;28;19983;-81
2023/05/17 04:31:24;;;;;;;;;;;;;;;8.81;100.00;96418.56;5037667;28;19925;-81
2023/05/17 04:33:53;;;;;;;;;;;;;;;8.88;100.00;96413.97;5021263;28;19925;-81
2023/05/17 04:36:20;;;;;;;;;;;;;;;8.85;100.00;96416.25;5041662;28;19925;-81
2023/05/17 04:38:48;;;;;;;;;;;;;;;8.87;100.00;96420.38;5028537;28;20076;-82
2023/05/17 04:41:18;;;;;;;;;;;;;;;8.92;100.00;96427.84;5027466;28;19925;-81
2023/05/17 04:43:44;;;;;;;;;;;;;;;8.90;100.00;96425.34;5026564;28;19925;-81
2023/05/17 04:46:19;;;;;;;;;;;;;;;8.90;100.00;96419.97;5027652;28;19947;-81
2023/05/17 04:48:46;;;;;;;;;;;;;;;8.90;100.00;96425.34;5024661;28;19932;-82
2023/05/17 04:51:15;;;;;;;;;;;;;;;8.86;100.00;96426.81;5028842;28;19948;-81
2023/05/17 04:53:41;;;;;;;;;;;;;;;8.90;100.00;96424.53;5043103;28;19964;-81
2023/05/17 04:56:13;;;;;;;;;;;;;;;8.85;100.00;96433.25;5041845;28;19931;-83
2023/05/17 04:58:40;;;;;;;;;;;;;;;8.84;100.00;96437.00;5037977;28;19929;-81
2023/05/17 05:01:08;;;;;;;;;;;;;;;8.81;100.00;96432.03;5028136;28;20069;-82
2023/05/17 05:03:35;;;;;;;;;;;;;;;8.82;100.00;96433.69;5026474;28;19925;-82
2023/05/17 05:06:03;;;;;;;;;;;;;;;8.79;100.00;96444.88;5045252;28;19932;-81
2023/05/17 05:08:33;;;;;;;;;;;;;;;8.77;100.00;96451.50;5027271;28;19925;-82
2023/05/17 05:10:59;;;;;;;;;;;;;;;8.76;100.00;96453.41;5022523;28;19925;-81
2023/05/17 05:13:27;;;;;;;;;;;;;;;8.81;100.00;96450.88;5043895;28;19933;-81
2023/05/17 05:15:54;;;;;;;;;;;;;;;8.85;100.00;96456.66;5020254;28;19925;-83
2023/05/17 05:18:21;;;;;;;;;;;;;;;8.87;100.00;96452.69;5049180;28;19932;-81
2023/05/17 05:20:48;;;;;;;;;;;;;;;8.89;100.00;96450.63;5027326;28;20015;-81
2023/05/17 05:23:17;;;;;;;;;;;;;;;8.93;100.00;96457.22;5025319;28;19932;-81
2023/05/17 05:25:47;;;;;;;;;;;;;;;8.93;100.00;96453.72;5030246;28;19956;-80
2023/05/17 05:28:14;;;;;;;;;;;;;;;8.96;100.00;96447.88;5042463;28;19933;-81
2023/05/17 05:30:41;;;;;;;;;;;;;;;8.99;100.00;96450.97;5024894;28;19925;-81
2023/05/17 05:33:08;;;;;;;;;;;;;;;9.05;100.00;96452.78;5027113;28;20012;-81
2023/05/17 05:35:36;;;;;;;;;;;;;;;9.10;100.00;96447.56;5042453;28;19925;-81
2023/05/17 05:38:03;;;;;;;;;;;;;;;9.14;100.00;96455.22;5023516;28;19933;-81
2023/05/17 05:40:31;;;;;;;;;;;;;;;9.13;100.00;96459.78;5026161;28;19925;-82
2023/05/17 05:42:59;;;;;;;;;;;;;;;9.19;100.00;96456.19;5028659;28;19924;-81
2023/05/17 05:45:25;;;;;;;;;;;;;;;9.22;100.00;96452.25;5045703;28;19925;-82
2023/05/17 05:47:55;;;;;;;;;;;;;;;9.23;100.00;96452.03;5028148;28;19926;-81
2023/05/17 05:50:23;;;;;;;;;;;;;;;9.26;100.00;96451.63;5041831;28;19933;-81
2023/05/17 05:52:55;;;;;;;;;;;;;;;9.36;100.00;96459.19;5028062;28;19933;-81
2023/05/17 05:55:22;;;;;;;;;;;;;;;9.34;100.00;96451.34;5019857;28;20011;-81
2023/05/17 05:57:49;;;;;;;;;;;;;;;9.42;100.00;96464.53;5025424;28;19933;-82
2023/05/17 06:00:18;;;;;;;;;;;;;;;9.44;100.00;96461.63;5031229;28;20032;-80
2023/05/17 06:02:46;;;;;;;;;;;;;;;9.45;100.00;96460.56;5018171;28;19925;-81
2023/05/17 06:05:13;;;;;;;;;;;;;;;9.45;100.00;96457.84;5040213;28;19932;-80
2023/05/17 06:07:39;;;;;;;;;;;;;;;9.48;100.00;96463.66;5030063;28;19925;-80
2023/05/17 06:10:07;;;;;;;;;;;;;;;9.51;100.00;96458.88;5032106;28;19931;-81
2023/05/17 06:12:34;;;;;;;;;;;;;;;9.53;100.00;96471.06;5049345;28;19925;-81
2023/05/17 06:15:01;;;;;;;;;;;;;;;9.59;100.00;96477.47;5026808;28;19925;-81
2023/05/17 06:17:29;;;;;;;;;;;;;;;9.63;100.00;96479.47;5027165;28;19979;-81
2023/05/17 06:19:56;;;;;;;;;;;;;;;9.60;100.00;96482.63;5030294;28;19925;-82
2023/05/17 06:22:23;;;;;;;;;;;;;;;9.63;100.00;96479.47;5032646;28;19929;-81
2023/05/17 06:24:50;;;;;;;;;;;;;;;9.70;100.00;96484.81;5044851;28;19969;-81
2023/05/17 06:27:16;;;;;;;;;;;;;;;9.76;100.00;96479.38;5021608;28;19929;-81
2023/05/17 06:29:43;;;;;;;;;;;;;;;9.81;100.00;96476.81;5043469;28;19933;-82
2023/05/17 06:32:10;;;;;;;;;;;;;;;9.82;100.00;96480.34;5027961;28;19932;-81
2023/05/17 06:34:38;;;;;;;;;;;;;;;9.81;100.00;96487.59;5050281;28;19932;-81
2023/05/17 06:37:05;;;;;;;;;;;;;;;9.82;100.00;96494.66;5029175;28;19967;-80
2023/05/17 06:39:32;;;;;;;;;;;;;;;9.84;100.00;96492.56;5034044;28;20019;-81
2023/05/17 06:42:00;;;;;;;;;;;;;;;9.88;100.00;96488.38;5028996;28;19925;-81
2023/05/17 06:44:26;;;;;;;;;;;;;;;9.94;100.00;96496.63;5034576;28;20019;-81
2023/05/17 06:46:55;;;;;;;;;;;;;;;9.92;100.00;96496.03;5040339;28;19931;-80
2023/05/17 06:49:22;;;;;;;;;;;;;;;9.95;100.00;96495.59;5032401;28;20059;-81
2023/05/17 06:51:50;;;;;;;;;;;;;;;9.98;100.00;96497.81;5033369;28;19937;-81
2023/05/17 06:54:18;;;;;;;;;;;;;;;9.95;100.00;96492.91;5043606;28;19940;-81
2023/05/17 06:56:45;;;;;;;;;;;;;;;9.96;100.00;96495.34;5022755;28;20009;-81
2023/05/17 06:59:12;;;;;;;;;;;;;;;9.98;100.00;96490.56;5025294;28;20023;-80
2023/05/17 07:01:38;;;;;;;;;;;;;;;10.01;100.00;96492.81;5042218;28;19929;-81
2023/05/17 07:04:05;;;;;;;;;;;;;;;10.13;100.00;96507.19;5025391;28;19975;-81
2023/05/17 07:06:32;;;;;;;;;;;;;;;10.14;100.00;96502.63;5039597;28;19932;-81
2023/05/17 07:09:00;;;;;;;;;;;;;;;10.12;100.00;96502.06;5024755;28;19975;-81
2023/05/17 07:11:27;;;;;;;;;;;;;;;10.15;100.00;96504.28;5043861;28;19925;-80
2023/05/17 07:13:53;;;;;;;;;;;;;;;10.20;100.00;96502.63;5023955;28;20001;-82
2023/05/17 07:16:20;;;;;;;;;;;;;;;10.26;100.00;96508.16;5021156;28;19929;-81
2023/05/17 07:18:47;;;;;;;;;;;;;;;10.27;100.00;96507.13;5044633;28;20003;-80
2023/05/17 07:21:13;;;;;;;;;;;;;;;10.34;100.00;96508.69;5026193;28;19929;-81
2023/05/17 07:23:40;;;;;;;;;;;;;;;10.44;100.00;96514.38;5044490;28;19929;-81
2023/05/17 07:26:08;;;;;;;;;;;;;;;10.51;100.00;96504.34;5027641;28;19948;-80
2023/05/17 07:28:35;;;;;;;;;;;;;;;10.60;100.00;96511.09;5044051;28;19933;-81
2023/05/17 07:31:01;;;;;;;;;;;;;;;10.59;100.00;96504.03;5045461;28;19988;-81
2023/05/17 07:33:28;;;;;;;;;;;;;;;10.53;100.00;96506.81;5027913;28;20020;-81
2023/05/17 07:35:56;;;;;;;;;;;;;;;10.58;100.00;96512.34;5028192;28;19936;-81
2023/05/17 07:38:22;;;;;;;;;;;;;;;10.52;100.00;96522.19;5027237;28;19964;-80
2023/05/17 07:40:49;;;;;;;;;;;;;;;10.49;100.00;96511.00;5036163;28;19956;-80
2023/05/17 07:43:17;;;;;;;;;;;;;;;10.50;100.00;96524.28;5029830;28;19979;-80
2023/05/17 07:45:46;;;;;;;;;;;;;;;10.52;100.00;96522.19;5041666;28;19932;-80
2023/05/17 07:48:13;;;;;;;;;;;;;;;10.56;100.00;96514.44;5022352;28;19925;-81
2023/05/17 07:50:39;;;;;;;;;;;;;;;10.55;100.00;96513.63;5030777;28;19940;-82
2023/05/17 07:53:06;;;;;;;;;;;;;;;10.50;100.00;96521.59;5027942;28;19956;-80
2023/05/17 07:55:33;;;;;;;;;;;;;;;10.52;100.00;96521.34;5046167;28;19925;-81
2023/05/17 07:58:00;;;;;;;;;;;;;;;10.57;100.00;96524.19;5023353;28;19940;-80
2023/05/17 08:00:29;;;;;;;;;;;;;;;10.56;100.00;96530.66;5045173;28;19925;-81
2023/05/17 08:02:56;;;;;;;;;;;;;;;10.58;100.00;96521.28;5025933;28;19925;-81
2023/05/17 08:05:23;;;;;;;;;;;;;;;10.50;100.00;96524.28;5029837;28;19925;-80
2023/05/17 08:07:51;;;;;;;;;;;;;;;10.51;100.00;96525.94;5025485;28;19983;-81
2023/05/17 08:10:17;;;;;;;;;;;;;;;10.52;100.00;96526.75;5029403;28;20020;-81
2023/05/17 08:12:44;;;;;;;;;;;;;;;10.55;100.00;96532.50;5026049;28;19925;-80
2023/05/17 08:15:11;;;;;;;;;;;;;;;10.57;100.00;96527.72;5024371;28;19925;-80
2023/05/17 08:17:39;;;;;;;;;;;;;;;10.61;100.00;96528.94;5027532;28;19925;-80
2023/05/17 08:20:07;;;;;;;;;;;;;;;10.62;100.00;96535.16;5029597;28;19932;-81
2023/05/17 08:22:34;;;;;;;;;;;;;;;10.61;100.00;96537.03;5027391;28;19948;-81
2023/05/17 08:25:00;;;;;;;;;;;;;;;10.55;100.00;96543.31;5024860;28;19932;-81
2023/05/17 08:27:29;;;;;;;;;;;;;;;10.54;100.00;96541.69;5033299;28;19925;-81
2023/05/17 08:29:56;;;;;;;;;;;;;;;10.51;100.00;96542.13;5043853;28;19929;-81
2023/05/17 08:32:24;;;;;;;;;;;;;;;10.48;100.00;96553.38;5026187;28;19925;-80
2023/05/17 08:34:52;;;;;;;;;;;;;;;10.44;100.00;96540.56;5027218;28;19932;-81
2023/05/17 08:37:19;;;;;;;;;;;;;;;10.46;100.00;96546.56;5031559;28;19952;-80
2023/05/17 08:39:46;;;;;;;;;;;;;;;10.37;100.00;96539.81;5026180;28;19925;-80
2023/05/17 08:42:15;;;;;;;;;;;;;;;10.41;100.00;96549.91;5025407;28;19929;-80
2023/05/17 08:44:42;;;;;;;;;;;;;;;10.41;100.00;96547.22;5041683;28;19932;-80
2023/05/17 08:47:11;;;;;;;;;;;;;;;10.39;100.00;96549.31;5035967;28;19925;-81
2023/05/17 08:49:38;;;;;;;;;;;;;;;10.30;100.00;96545.25;5026287;28;19930;-80
2023/05/17 08:52:09;;;;;;;;;;;;;;;10.31;100.00;96543.38;5043944;28;19925;-80
2023/05/17 08:54:37;;;;;;;;;;;;;;;10.33;100.00;96549.38;5047253;28;19929;-80
2023/05/17 08:57:05;;;;;;;;;;;;;;;10.31;100.00;96546.91;5025332;28;19925;-81
2023/05/17 08:59:34;;;;;;;;;;;;;;;10.31;100.00;96546.91;5018956;28;19929;-80
2023/05/17 09:02:01;;;;;;;;;;;;;;;10.31;100.00;96549.59;5033687;28;19926;-81
2023/05/17 09:04:29;;;;;;;;;;;;;;;10.36;100.00;96554.34;5025180;28;19925;-81
2023/05/17 09:06:55;;;;;;;;;;;;;;;10.39;100.00;96553.88;5026085;28;19932;-82
2023/05/17 09:09:24;;;;;;;;;;;;;;;10.41;100.00;96549.09;5042641;28;19925;-81
2023/05/17 09:11:50;;;;;;;;;;;;;;;10.48;100.00;96558.78;5030352;28;19948;-80
2023/05/17 09:14:17;;;;;;;;;;;;;;;10.56;100.00;96560.34;5040240;28;19935;-81
2023/05/17 09:16:44;;;;;;;;;;;;;;;10.61;100.00;96561.34;5035010;28;20325;-80
2023/05/17 09:19:14;;;;;;;;;;;;;;;10.59;100.00;96560.72;5043514;28;20086;-81
2023/05/17 09:21:45;;;;;;;;;;;;;;;10.51;100.00;96558.34;5023010;28;19971;-80
2023/05/17 09:24:11;;;;;;;;;;;;;;;10.56;100.00;96560.34;5042148;28;19929;-81
2023/05/17 09:26:40;;;;;;;;;;;;;;;10.52;100.00;96562.69;5024941;28;19925;-80
2023/05/17 09:29:10;;;;;;;;;;;;;;;10.59;100.00;96555.34;5032311;28;19929;-80
2023/05/17 09:31:38;;;;;;;;;;;;;;;10.61;100.00;96547.84;5025100;28;19925;-80
2023/05/17 09:34:07;;;;;;;;;;;;;;;10.68;100.00;96553.16;5042338;28;19940;-80
2023/05/17 09:36:35;;;;;;;;;;;;;;;10.68;100.00;96558.56;5016072;28;19926;-80
2023/05/17 09:39:04;;;;;;;;;;;;;;;10.66;100.00;96559.81;5025457;28;20019;-80
2023/05/17 09:41:32;;;;;;;;;;;;;;;10.57;100.00;96562.81;5040483;28;19926;-80
2023/05/17 09:44:01;;;;;;;;;;;;;;;10.68;100.00;96563.13;5029778;28;19931;-80
2023/05/17 09:46:28;;;;;;;;;;;;;;;10.74;100.00;96564.91;5044093;28;19933;-79
2023/05/17 09:48:55;;;;;;;;;;;;;;;10.80;100.00;96564.84;5021726;28;19948;-79
2023/05/17 09:51:35;;;;;;;;;;;;;;;10.79;100.00;96570.50;5039721;28;19968;-80
2023/05/17 09:54:02;;;;;;;;;;;;;;;10.75;100.00;96574.69;5025241;28;19980;-78
2023/05/17 09:56:30;;;;;;;;;;;;;;;10.70;100.00;96580.78;5020707;28;19933;-81
2023/05/17 09:58:56;;;;;;;;;;;;;;;10.64;100.00;96576.25;5034880;28;19957;-80
2023/05/17 10:01:27;;;;;;;;;;;;;;;10.63;100.00;96579.19;5026050;28;19933;-80
2023/05/17 10:03:55;;;;;;;;;;;;;;;10.74;100.00;96579.25;5026822;28;19925;-80
2023/05/17 10:06:22;;;;;;;;;;;;;;;10.78;100.00;96579.63;5042329;28;19952;-81
2023/05/17 10:08:52;;;;;;;;;;;;;;;10.78;100.00;96579.63;5051643;28;20000;-79
2023/05/17 10:11:23;;;;;;;;;;;;;;;10.82;100.00;96580.81;5030691;28;19932;-79
2023/05/17 10:13:53;;;;;;;;;;;;;;;10.83;100.00;96582.47;5028652;28;19936;-80
2023/05/17 10:16:22;;;;;;;;;;;;;;;10.83;100.00;96582.47;5053675;28;19979;-80
2023/05/17 10:18:50;;;;;;;;;;;;;;;10.81;100.00;96582.69;5031336;28;19948;-79
2023/05/17 10:21:18;;;;;;;;;;;;;;;10.84;100.00;96590.34;5025618;28;19929;-79
2023/05/17 10:23:45;;;;;;;;;;;;;;;10.88;100.00;96590.75;5025638;28;19932;-79
2023/05/17 10:26:12;;;;;;;;;;;;;;;10.91;100.00;96590.28;5026241;28;19933;-79
2023/05/17 10:28:39;;;;;;;;;;;;;;;10.97;100.00;96589.38;5037517;28;19929;-79
2023/05/17 10:31:07;;;;;;;;;;;;;;;10.93;100.00;96586.31;5028414;28;19932;-79
2023/05/17 10:33:34;;;;;;;;;;;;;;;10.89;100.00;96597.78;5039845;28;19944;-79
2023/05/17 10:36:05;;;;;;;;;;;;;;;10.94;100.00;96593.34;5043392;28;19925;-79
2023/05/17 10:38:32;;;;;;;;;;;;;;;10.90;100.00;96591.31;5029524;28;19956;-79
2023/05/17 10:40:59;;;;;;;;;;;;;;;10.88;100.00;96596.16;5032272;28;19932;-80
2023/05/17 10:43:29;;;;;;;;;;;;;;;10.93;100.00;96594.41;5027518;28;19934;-79
2023/05/17 10:45:56;;;;;;;;;;;;;;;10.93;100.00;96593.56;5026153;28;20016;-79
2023/05/17 10:48:23;;;;;;;;;;;;;;;11.01;100.00;96598.66;5025432;28;19947;-79
2023/05/17 10:50:53;;;;;;;;;;;;;;;10.98;100.00;96594.53;5026946;28;19979;-79
2023/05/17 10:53:22;;;;;;;;;;;;;;;10.92;100.00;96600.03;5030295;28;19947;-80
2023/05/17 10:55:51;;;;;;;;;;;;;;;10.97;100.00;96600.19;5018250;28;19925;-80
2023/05/17 10:58:19;;;;;;;;;;;;;;;10.77;100.00;96596.88;5043542;28;19952;-80
2023/05/17 11:00:47;;;;;;;;;;;;;;;10.74;100.00;96594.63;5030184;28;20044;-80
2023/05/17 11:03:17;;;;;;;;;;;;;;;10.78;100.00;96591.25;5025426;28;19929;-79
2023/05/17 11:05:45;;;;;;;;;;;;;;;10.89;100.00;96597.78;5039621;28;19931;-79
2023/05/17 11:08:16;;;;;;;;;;;;;;;10.93;100.00;96598.97;5021189;28;19987;-81
2023/05/17 11:11:13;;;;;;;;;;;;;;;10.90;100.00;96602.13;5039821;28;19929;-80
2023/05/17 11:13:52;;;;;;;;;;;;;;;10.97;100.00;96602.91;4944625;28;19969;-80
2023/05/17 11:16:21;;;;;;;;;;;;;;;11.00;100.00;96605.94;5028025;28;19929;-80
2023/05/17 11:18:51;;;;;;;;;;;;;;;11.03;100.00;96607.38;5023157;28;19978;-81
2023/05/17 11:21:18;;;;;;;;;;;;;;;11.06;100.00;96603.41;5030044;28;19980;-79
2023/05/17 11:23:46;;;;;;;;;;;;;;;11.00;100.00;96603.25;5028927;28;20004;-79
2023/05/17 11:26:16;;;;;;;;;;;;;;;11.00;100.00;96605.13;5028357;28;19925;-79
2023/05/17 11:28:43;;;;;;;;;;;;;;;10.89;100.00;96604.00;5024300;28;19948;-80
2023/05/17 11:31:11;;;;;;;;;;;;;;;10.90;100.00;96604.81;5040153;28;19932;-79
2023/05/17 11:33:39;;;;;;;;;;;;;;;10.87;100.00;96600.72;5043370;28;19988;-80
2023/05/17 11:36:14;;;;;;;;;;;;;;;10.94;100.00;96600.63;5033273;28;19925;-81
2023/05/17 11:38:40;;;;;;;;;;;;;;;10.97;100.00;96594.78;5026840;28;19968;-80
2023/05/17 11:41:17;;;;;;;;;;;;;;;10.96;100.00;96593.13;5020506;28;19932;-79
2023/05/17 11:43:46;;;;;;;;;;;;;;;11.08;100.00;96595.88;5056064;28;19926;-79
2023/05/17 11:46:19;;;;;;;;;;;;;;;11.17;100.00;96595.34;5031501;28;19925;-79
2023/05/17 11:48:47;;;;;;;;;;;;;;;11.14;100.00;96587.72;5045150;28;19932;-80
2023/05/17 11:51:14;;;;;;;;;;;;;;;11.18;100.00;96593.47;5026863;28;19925;-78
2023/05/17 11:53:41;;;;;;;;;;;;;;;11.16;100.00;96595.56;5030077;28;19932;-79
2023/05/17 11:56:10;;;;;;;;;;;;;;;11.17;100.00;96606.16;5022801;28;19925;-79
2023/05/17 11:58:37;;;;;;;;;;;;;;;11.08;100.00;96601.28;5021185;28;19997;-80
2023/05/17 12:01:04;;;;;;;;;;;;;;;10.97;100.00;96601.00;5025144;28;19925;-80
2023/05/17 12:03:33;;;;;;;;;;;;;;;10.90;100.00;96602.13;5025091;28;20032;-79
2023/05/17 12:06:05;;;;;;;;;;;;;;;10.93;100.00;96605.22;5040466;28;19925;-80
2023/05/17 12:08:34;;;;;;;;;;;;;;;10.92;100.00;96602.72;5028479;28;19971;-79
2023/05/17 12:11:01;;;;;;;;;;;;;;;10.95;100.00;96596.88;5025518;28;20019;-80
2023/05/17 12:13:29;;;;;;;;;;;;;;;10.98;100.00;96609.94;5029007;28;19947;-78
2023/05/17 12:15:56;;;;;;;;;;;;;;;10.96;100.00;96603.94;5028571;28;19952;-81
2023/05/17 12:18:23;;;;;;;;;;;;;;;10.96;100.00;96604.78;5036392;28;19972;-78
2023/05/17 12:20:55;;;;;;;;;;;;;;;10.98;100.00;96604.53;5023746;28;19933;-79
2023/05/17 12:23:29;;;;;;;;;;;;;;;10.97;100.00;96608.31;5023832;28;20019;-79
2023/05/17 12:26:06;;;;;;;;;;;;;;;11.04;100.00;96606.34;5039570;28;19932;-80
2023/05/17 12:28:33;;;;;;;;;;;;;;;11.06;100.00;96598.81;5012653;28;19926;-78
2023/05/17 12:31:01;;;;;;;;;;;;;;;11.16;100.00;96607.22;5028480;28;19936;-79
2023/05/17 12:33:30;;;;;;;;;;;;;;;11.22;100.00;96609.03;5026953;28;20012;-77
2023/05/17 12:35:58;;;;;;;;;;;;;;;11.28;100.00;96604.56;5040525;28;19925;-78
2023/05/17 12:38:26;;;;;;;;;;;;;;;11.27;100.00;96603.75;5023213;28;19948;-77
2023/05/17 12:40:53;;;;;;;;;;;;;;;11.23;100.00;96594.41;5041040;28;19980;-77
2023/05/17 12:43:23;;;;;;;;;;;;;;;11.22;100.00;96597.38;5035333;28;19933;-78
2023/05/17 12:45:49;;;;;;;;;;;;;;;11.23;100.00;96597.13;5026524;28;19936;-77